Station Historical Data
Daily Summary for November 5, 2017 Units:  Metric    English   Both
« Previous Day
Next Day »
Daily Weekly Monthly Yearly Custom
  High: Low: Average:
Temperature: 15.9 °C 6.4 °C 12.7 °C
Dew Point: 14.1 °C 3.3 °C 10.6 °C
Humidity: 92% 74% 88%
Wind Speed: 19.3km/h 0km/h 5.8km/h
Wind Gust: 32.2km/h - -
Wind- - South
Pressure: 1018.5 hPa 1006.3 hPa -
Precipitation: 0 mm    
Historical Graphs
 
 
Tabular Data for November 5, 2017
Time Temperature Dew Point Pressure Wind Wind Speed Wind Gust Humidity Rainfall Rate (Hourly)
00:04 7.6 °C 3.3 °C 1016.8 hPa Calm   3.2 km/h 74% 0 mm
00:09 7.7 °C 3.3 °C 1016.8 hPa Calm   3.2 km/h 74% 0 mm
00:14 7.7 °C 3.4 °C 1016.8 hPa Calm     74% 0 mm
00:19 7.6 °C 3.3 °C 1016.8 hPa Calm     74% 0 mm
00:24 7.6 °C 3.4 °C 1016.8 hPa Calm     75% 0 mm
00:29 7.6 °C 3.4 °C 1016.8 hPa Calm     75% 0 mm
00:34 7.6 °C 3.4 °C 1017.2 hPa Calm     75% 0 mm
00:39 7.6 °C 3.8 °C 1017.5 hPa Calm   4.8 km/h 77% 0 mm
00:44 7.5 °C 3.9 °C 1018.5 hPa NW 4.8 km/h 17.7 km/h 78% 0.51 mm
00:49 7.2 °C 3.8 °C 1018.5 hPa WNW 3.2 km/h 9.7 km/h 79% 0.76 mm
00:54 7 °C 3.9 °C 1017.8 hPa NE 3.2 km/h 6.4 km/h 81% 1.02 mm
01:00 6.9 °C 4 °C 1017.8 hPa ENE 3.2 km/h 6.4 km/h 82% 3.05 mm
01:05 6.7 °C 4.2 °C 1017.8 hPa ENE 1.6 km/h 8 km/h 84% 4.57 mm
01:10 6.5 °C 4.2 °C 1017.5 hPa ENE 1.6 km/h 8 km/h 85% 5.08 mm
01:15 6.4 °C 4.2 °C 1017.5 hPa NE 1.6 km/h 4.8 km/h 86% 5.08 mm
01:20 6.4 °C 4.2 °C 1017.5 hPa Calm   4.8 km/h 86% 5.33 mm
01:25 6.4 °C 4.4 °C 1017.5 hPa Calm     87% 5.59 mm
01:30 6.4 °C 4.6 °C 1017.2 hPa Calm   6.4 km/h 88% 5.59 mm
01:35 6.4 °C 4.6 °C 1017.2 hPa ESE 1.6 km/h 6.4 km/h 88% 5.59 mm
01:40 6.6 °C 4.8 °C 1016.8 hPa SSE 4.8 km/h 4.8 km/h 88% 5.59 mm
01:45 6.7 °C 5.1 °C 1016.5 hPa SE 3.2 km/h 4.8 km/h 89% 5.08 mm
01:50 6.8 °C 5.2 °C 1016.5 hPa SE 3.2 km/h 8 km/h 89% 4.83 mm
01:55 6.9 °C 5.2 °C 1016.8 hPa SSW 3.2 km/h 9.7 km/h 89% 4.83 mm
01:00 7.1 °C 5.4 °C 1016.8 hPa Calm   4.8 km/h 89% 3.05 mm
01:05 7.3 °C 5.7 °C 1016.8 hPa SSE 1.6 km/h 6.4 km/h 90% 1.52 mm
01:10 7.5 °C 5.8 °C 1016.5 hPa SSE 3.2 km/h 9.7 km/h 89% 3.05 mm
01:15 7.7 °C 6.2 °C 1016.5 hPa SSE 3.2 km/h 9.7 km/h 90% 3.3 mm
01:20 7.9 °C 6.4 °C 1016.1 hPa SSE 3.2 km/h 11.3 km/h 90% 3.3 mm
01:25 8.2 °C 6.6 °C 1016.1 hPa SE 4.8 km/h 11.3 km/h 90% 3.81 mm
01:30 8.4 °C 6.8 °C 1016.1 hPa SSE 3.2 km/h 11.3 km/h 90% 4.06 mm
01:35 8.5 °C 6.9 °C 1016.5 hPa Calm   6.4 km/h 90% 1.52 mm
01:40 8.6 °C 7.1 °C 1016.1 hPa SSE 1.6 km/h 3.2 km/h 90% 3.3 mm
01:45 8.8 °C 7.2 °C 1016.1 hPa SSE 1.6 km/h 4.8 km/h 90% 6.1 mm
01:50 8.8 °C 7.2 °C 1016.1 hPa Calm   6.4 km/h 90% 3.81 mm
01:55 8.9 °C 7.3 °C 1016.1 hPa Calm     90% 3.56 mm
02:00 8.9 °C 7.4 °C 1016.1 hPa Calm     90% 3.3 mm
02:05 8.9 °C 7.4 °C 1016.8 hPa SW 3.2 km/h 3.2 km/h 90% 3.3 mm
02:10 9.1 °C 7.5 °C 1016.1 hPa SSE 3.2 km/h 3.2 km/h 90% 3.81 mm
02:15 9 °C 7.4 °C 1016.1 hPa SSE 4.8 km/h 8 km/h 90% 4.57 mm
02:20 9.1 °C 7.6 °C 1016.5 hPa SSE 3.2 km/h 9.7 km/h 90% 5.59 mm
02:25 9.2 °C 7.7 °C 1016.1 hPa SSE 4.8 km/h 14.5 km/h 90% 5.59 mm
02:30 9.2 °C 7.7 °C 1016.1 hPa SSE 6.4 km/h 16.1 km/h 90% 6.1 mm
02:35 9.2 °C 7.7 °C 1016.1 hPa SSE 6.4 km/h 19.3 km/h 90% 6.1 mm
02:40 9.2 °C 7.7 °C 1016.1 hPa SSE 4.8 km/h 11.3 km/h 90% 3.05 mm
02:45 9.2 °C 7.7 °C 1016.1 hPa SSE 3.2 km/h 11.3 km/h 90% 3.3 mm
02:50 9.2 °C 7.7 °C 1016.1 hPa SSE 4.8 km/h 11.3 km/h 90% 6.86 mm
02:55 9.2 °C 7.7 °C 1015.8 hPa SSE 4.8 km/h 11.3 km/h 90% 6.6 mm
03:00 9.3 °C 7.7 °C 1015.8 hPa SSE 4.8 km/h 9.7 km/h 90% 3.05 mm
03:05 9.3 °C 7.7 °C 1015.8 hPa SSE 3.2 km/h 9.7 km/h 90% 3.05 mm
03:10 9.3 °C 7.6 °C 1015.8 hPa Calm   9.7 km/h 89% 2.54 mm
03:15 9.4 °C 7.7 °C 1015.8 hPa Calm   6.4 km/h 89% 1.52 mm
03:20 9.4 °C 7.7 °C 1015.8 hPa SSE 1.6 km/h 4.8 km/h 89% 1.52 mm
03:25 9.4 °C 7.7 °C 1015.8 hPa SSE 1.6 km/h 4.8 km/h 89% 1.27 mm
03:30 9.4 °C 7.7 °C 1015.5 hPa SSE 1.6 km/h 4.8 km/h 89% 0.76 mm
03:35 9.4 °C 7.9 °C 1015.8 hPa SSE 6.4 km/h 8 km/h 90% 0.76 mm
03:40 9.6 °C 8 °C 1015.8 hPa South 3.2 km/h 8 km/h 90% 0.51 mm
03:45 9.7 °C 8.1 °C 1015.5 hPa SSE 3.2 km/h 8 km/h 90% 0 mm
03:50 9.8 °C 8.2 °C 1015.5 hPa SSW 3.2 km/h 11.3 km/h 90% 0 mm
03:55 9.9 °C 8.3 °C 1015.5 hPa SE 1.6 km/h 8 km/h 90% 0 mm
04:00 9.9 °C 8.4 °C 1015.5 hPa SSE 3.2 km/h 9.7 km/h 90% 0 mm
04:05 10.1 °C 8.5 °C 1015.5 hPa SSE 3.2 km/h 9.7 km/h 90% 0 mm
04:10 10.2 °C 8.6 °C 1015.5 hPa SSE 4.8 km/h 11.3 km/h 90% 0 mm
04:15 10.2 °C 8.7 °C 1015.1 hPa SSE 4.8 km/h 11.3 km/h 90% 0 mm
04:20 10.3 °C 8.7 °C 1015.1 hPa SSE 6.4 km/h 12.9 km/h 90% 0.25 mm
04:25 10.3 °C 8.6 °C 1015.1 hPa SE 3.2 km/h 9.7 km/h 89% 0.25 mm
04:30 10.3 °C 8.6 °C 1015.1 hPa SE 8 km/h 11.3 km/h 89% 0.25 mm
04:35 10.4 °C 8.7 °C 1014.8 hPa SE 8 km/h 14.5 km/h 89% 0.25 mm
04:40 10.5 °C 8.8 °C 1015.1 hPa South 8 km/h 12.9 km/h 89% 0.25 mm
04:45 10.6 °C 8.7 °C 1014.8 hPa SSE 4.8 km/h 12.9 km/h 88% 0.25 mm
04:50 10.7 °C 8.8 °C 1014.8 hPa South 6.4 km/h 9.7 km/h 88% 0.25 mm
04:55 10.7 °C 8.8 °C 1014.8 hPa SE 6.4 km/h 12.9 km/h 88% 0.25 mm
05:00 10.8 °C 8.9 °C 1014.8 hPa SE 8 km/h 11.3 km/h 88% 0.25 mm
05:05 10.8 °C 8.8 °C 1014.8 hPa SSE 6.4 km/h 17.7 km/h 87% 0.25 mm
05:10 10.9 °C 8.8 °C 1014.8 hPa South 6.4 km/h 17.7 km/h 87% 0.25 mm
05:15 10.9 °C 8.8 °C 1014.8 hPa SSE 4.8 km/h 11.3 km/h 87% 0.25 mm
05:20 10.9 °C 8.8 °C 1014.8 hPa SSE 4.8 km/h 11.3 km/h 87% 0 mm
05:25 10.9 °C 8.9 °C 1014.8 hPa SSE 4.8 km/h 12.9 km/h 87% 0 mm
05:30 10.9 °C 8.9 °C 1014.4 hPa South 3.2 km/h 11.3 km/h 87% 0 mm
05:34 10.9 °C 8.9 °C 1014.4 hPa SSE 4.8 km/h 16.1 km/h 87% 0 mm
05:40 10.9 °C 8.9 °C 1014.4 hPa SSE 4.8 km/h 16.1 km/h 87% 0 mm
05:44 11 °C 8.9 °C 1014.4 hPa SW 9.7 km/h 16.1 km/h 87% 0 mm
05:49 11 °C 8.9 °C 1014.4 hPa South 4.8 km/h 9.7 km/h 87% 0.25 mm
05:55 10.9 °C 8.9 °C 1014.1 hPa SSW 1.6 km/h 11.3 km/h 87% 1.02 mm
06:00 10.9 °C 8.9 °C 1014.1 hPa SE 1.6 km/h 9.7 km/h 87% 1.02 mm
06:05 10.9 °C 9.1 °C 1014.1 hPa Calm   11.3 km/h 88% 1.02 mm
06:10 10.9 °C 9.1 °C 1014.1 hPa SSE 3.2 km/h 11.3 km/h 88% 1.02 mm
06:15 10.9 °C 9.1 °C 1014.1 hPa SSE 4.8 km/h 11.3 km/h 88% 1.02 mm
06:20 11 °C 9.1 °C 1013.8 hPa SSE 6.4 km/h 11.3 km/h 88% 1.02 mm
06:25 11 °C 9.1 °C 1013.8 hPa SSE 4.8 km/h 11.3 km/h 88% 1.02 mm
06:30 11.1 °C 9.2 °C 1013.8 hPa SSE 6.4 km/h 12.9 km/h 88% 1.02 mm
06:35 11.1 °C 9.2 °C 1013.8 hPa SSE 8 km/h 9.7 km/h 88% 1.02 mm
06:40 11.1 °C 9.1 °C 1013.8 hPa SSE 6.4 km/h 11.3 km/h 87% 1.02 mm
06:44 11.2 °C 9.1 °C 1013.8 hPa SSE 4.8 km/h 12.9 km/h 87% 1.02 mm
06:49 11.2 °C 9.1 °C 1013.8 hPa SSE 4.8 km/h 11.3 km/h 87% 0.76 mm
06:55 11.3 °C 9.2 °C 1013.8 hPa South 3.2 km/h 9.7 km/h 87% 0 mm
06:59 11.3 °C 9.2 °C 1013.8 hPa South 9.7 km/h 11.3 km/h 87% 0 mm
07:05 11.4 °C 9.3 °C 1013.4 hPa South 6.4 km/h 14.5 km/h 87% 0 mm
07:10 11.4 °C 9.2 °C 1013.4 hPa SSE 3.2 km/h 12.9 km/h 86% 0 mm
07:14 11.5 °C 9.2 °C 1013.4 hPa SSE 6.4 km/h 16.1 km/h 86% 0 mm
07:20 11.6 °C 9.3 °C 1013.4 hPa SSE 6.4 km/h 17.7 km/h 86% 0 mm
07:25 11.7 °C 9.4 °C 1013.4 hPa South 6.4 km/h 17.7 km/h 86% 0 mm
07:30 11.8 °C 9.3 °C 1013.4 hPa South 6.4 km/h 16.1 km/h 85% 0 mm
07:35 11.8 °C 9.4 °C 1013.1 hPa SSE 6.4 km/h 14.5 km/h 85% 0 mm
07:40 11.9 °C 9.5 °C 1013.1 hPa SSE 6.4 km/h 14.5 km/h 85% 0 mm
07:45 12 °C 9.6 °C 1013.1 hPa SSE 6.4 km/h 14.5 km/h 85% 0 mm
07:49 12.1 °C 9.7 °C 1013.1 hPa SSE 1.6 km/h 11.3 km/h 85% 0 mm
07:54 12.2 °C 9.7 °C 1013.1 hPa SSE 9.7 km/h 12.9 km/h 85% 0 mm
08:00 12.3 °C 9.8 °C 1013.1 hPa SE 8 km/h 11.3 km/h 85% 0 mm
08:04 12.3 °C 9.7 °C 1013.1 hPa SSW 6.4 km/h 16.1 km/h 84% 0 mm
08:09 12.4 °C 9.8 °C 1013.1 hPa SE 4.8 km/h 17.7 km/h 84% 0 mm
08:15 12.3 °C 9.7 °C 1013.1 hPa SE 4.8 km/h 14.5 km/h 84% 0 mm
08:20 12.4 °C 9.6 °C 1013.1 hPa SSE 11.3 km/h 12.9 km/h 83% 0 mm
08:24 12.4 °C 9.8 °C 1012.8 hPa SSE 8 km/h 20.9 km/h 84% 0 mm
08:29 12.4 °C 9.6 °C 1012.8 hPa SSE 8 km/h 20.9 km/h 83% 0 mm
08:34 12.4 °C 9.8 °C 1013.1 hPa SSE 6.4 km/h 16.1 km/h 84% 0.25 mm
08:40 12.3 °C 9.7 °C 1013.1 hPa SSE 3.2 km/h 14.5 km/h 84% 0.51 mm
08:45 12.3 °C 9.8 °C 1013.1 hPa SSE 3.2 km/h 11.3 km/h 85% 0.76 mm
08:50 12.2 °C 9.9 °C 1012.8 hPa SSE 6.4 km/h 12.9 km/h 86% 1.02 mm
08:54 12.2 °C 9.9 °C 1012.4 hPa SSE 9.7 km/h 14.5 km/h 86% 1.27 mm
08:59 12.3 °C 10 °C 1012.8 hPa SSW 4.8 km/h 17.7 km/h 86% 1.27 mm
09:04 12.3 °C 10 °C 1012.4 hPa SE 6.4 km/h 14.5 km/h 86% 1.52 mm
09:09 12.3 °C 10 °C 1012.4 hPa South 3.2 km/h 11.3 km/h 86% 1.52 mm
09:14 12.2 °C 10.1 °C 1012.4 hPa SSE 6.4 km/h 11.3 km/h 87% 1.52 mm
09:20 12.2 °C 10.1 °C 1012.1 hPa SSE 4.8 km/h 16.1 km/h 87% 1.78 mm
09:24 12.2 °C 10.1 °C 1012.1 hPa SSW 4.8 km/h 17.7 km/h 87% 2.29 mm
09:29 12.2 °C 10.1 °C 1012.8 hPa South 6.4 km/h 17.7 km/h 87% 2.79 mm
09:39 12.3 °C 10.3 °C 1012.4 hPa SW 3.2 km/h 8 km/h 88% 3.81 mm
09:45 12.5 °C 10.7 °C 1012.4 hPa South 3.2 km/h 8 km/h 89% 3.81 mm
09:50 12.7 °C 10.9 °C 1012.1 hPa South 3.2 km/h 11.3 km/h 89% 3.56 mm
09:55 12.7 °C 10.8 °C 1012.1 hPa South 4.8 km/h 16.1 km/h 88% 3.3 mm
09:59 12.7 °C 10.9 °C 1012.1 hPa South 6.4 km/h 14.5 km/h 89% 3.3 mm
10:05 12.7 °C 10.8 °C 1012.1 hPa South 6.4 km/h 16.1 km/h 88% 3.05 mm
10:10 12.7 °C 10.9 °C 1012.1 hPa South 4.8 km/h 16.1 km/h 89% 3.05 mm
10:15 12.8 °C 11 °C 1012.1 hPa SSE 16.1 km/h 19.3 km/h 89% 3.05 mm
10:20 12.8 °C 10.9 °C 1012.4 hPa SSE 6.4 km/h 16.1 km/h 88% 2.79 mm
10:25 12.8 °C 10.8 °C 1012.1 hPa South 6.4 km/h 17.7 km/h 88% 2.54 mm
10:30 12.7 °C 10.8 °C 1012.1 hPa SSE 9.7 km/h 14.5 km/h 88% 2.29 mm
10:35 12.8 °C 10.8 °C 1012.4 hPa SW 8 km/h 16.1 km/h 88% 1.78 mm
10:39 12.8 °C 11 °C 1012.4 hPa South 8 km/h 20.9 km/h 89% 1.27 mm
10:44 12.9 °C 11.1 °C 1012.1 hPa South 8 km/h 20.9 km/h 89% 1.27 mm
10:49 13 °C 11.2 °C 1012.1 hPa South 11.3 km/h 29 km/h 89% 1.52 mm
10:55 13.1 °C 11.3 °C 1012.1 hPa South 11.3 km/h 29 km/h 89% 1.78 mm
11:00 13.2 °C 11.4 °C 1012.1 hPa South 9.7 km/h 19.3 km/h 89% 1.78 mm
11:04 13.2 °C 11.4 °C 1011.7 hPa SSW 4.8 km/h 25.7 km/h 89% 2.03 mm
11:09 13.3 °C 11.5 °C 1011.7 hPa South 9.7 km/h 25.7 km/h 89% 2.03 mm
11:14 13.3 °C 11.6 °C 1011.7 hPa SE 9.7 km/h 22.5 km/h 89% 2.03 mm
11:19 13.3 °C 11.6 °C 1011.7 hPa SSE 4.8 km/h 22.5 km/h 89% 2.29 mm
11:25 13.4 °C 11.4 °C 1011.7 hPa South 4.8 km/h 24.1 km/h 88% 2.03 mm
11:30 13.4 °C 11.5 °C 1011.7 hPa SSE 11.3 km/h 22.5 km/h 88% 1.78 mm
11:35 13.4 °C 11.5 °C 1011.4 hPa SSE 9.7 km/h 20.9 km/h 88% 1.52 mm
11:40 13.4 °C 11.4 °C 1011.1 hPa SSW 11.3 km/h 19.3 km/h 88% 1.52 mm
11:44 13.4 °C 11.4 °C 1010.7 hPa SSE 9.7 km/h 19.3 km/h 88% 1.27 mm
11:49 13.6 °C 11.6 °C 1011.1 hPa SSE 9.7 km/h 20.9 km/h 88% 1.02 mm
11:54 13.8 °C 11.8 °C 1010.7 hPa South 9.7 km/h 25.7 km/h 88% 0.76 mm
11:59 13.9 °C 12 °C 1010.7 hPa South 11.3 km/h 25.7 km/h 88% 0.76 mm
12:05 14.1 °C 11.9 °C 1011.1 hPa SSW 9.7 km/h 24.1 km/h 87% 0.51 mm
12:10 14.1 °C 11.8 °C 1010.7 hPa SW 1.6 km/h 19.3 km/h 86% 0.51 mm
12:14 14.1 °C 11.7 °C 1010.7 hPa SSE 12.9 km/h 20.9 km/h 86% 0.51 mm
12:19 14.1 °C 11.7 °C 1010.7 hPa South 12.9 km/h 17.7 km/h 86% 0.25 mm
12:24 14.1 °C 11.7 °C 1010.7 hPa SSW 9.7 km/h 27.4 km/h 86% 0.25 mm
12:29 14.1 °C 11.6 °C 1010.7 hPa SSW 8 km/h 24.1 km/h 85% 0.25 mm
12:34 14.2 °C 11.7 °C 1010.7 hPa South 8 km/h 22.5 km/h 85% 0 mm
12:39 14.2 °C 11.7 °C 1010.7 hPa SSE 4.8 km/h 17.7 km/h 85% 0 mm
12:45 14.2 °C 11.7 °C 1010.7 hPa SSW 9.7 km/h 20.9 km/h 85% 0 mm
12:49 14.3 °C 11.8 °C 1010.4 hPa SSW 9.7 km/h 25.7 km/h 85% 0 mm
12:54 14.4 °C 11.9 °C 1010.4 hPa South 11.3 km/h 32.2 km/h 85% 0 mm
12:59 14.7 °C 12.2 °C 1010.4 hPa South 11.3 km/h 32.2 km/h 85% 0 mm
13:05 14.8 °C 12.2 °C 1010 hPa South 9.7 km/h 22.5 km/h 84% 0 mm
13:09 14.9 °C 12 °C 1010 hPa SSE 19.3 km/h 20.9 km/h 83% 0 mm
13:15 14.9 °C 12.1 °C 1010 hPa South 11.3 km/h 24.1 km/h 83% 0 mm
13:19 14.9 °C 12.1 °C 1010 hPa SSE 4.8 km/h 24.1 km/h 83% 0 mm
13:24 15.1 °C 12.2 °C 1010 hPa South 9.7 km/h 25.7 km/h 83% 0 mm
13:29 15.1 °C 12 °C 1010 hPa South 9.7 km/h 25.7 km/h 82% 0 mm
13:34 15.2 °C 12.1 °C 1010 hPa SSW 9.7 km/h 22.5 km/h 82% 0 mm
13:39 15.3 °C 12.2 °C 1010 hPa South 4.8 km/h 14.5 km/h 82% 0 mm
13:45 15.2 °C 12.2 °C 1010 hPa SSE 8 km/h 24.1 km/h 82% 0 mm
13:49 15.2 °C 12.1 °C 1010 hPa SSW 11.3 km/h 19.3 km/h 82% 0 mm
13:54 15.2 °C 12.1 °C 1009.7 hPa South 8 km/h 19.3 km/h 82% 0 mm
13:59 15.1 °C 12.1 °C 1009.7 hPa South 9.7 km/h 20.9 km/h 82% 0 mm
14:04 15.1 °C 12 °C 1010 hPa South 9.7 km/h 20.9 km/h 82% 0 mm
14:09 15.1 °C 12.1 °C 1010 hPa SE 8 km/h 22.5 km/h 82% 0 mm
14:14 15.1 °C 12.1 °C 1010 hPa SSW 11.3 km/h 22.5 km/h 82% 0 mm
14:19 15.2 °C 12.1 °C 1010 hPa SSE 6.4 km/h 24.1 km/h 82% 0 mm
14:29 15.2 °C 12.2 °C 1010 hPa South 8 km/h 17.7 km/h 82% 0 mm
14:34 15.2 °C 12.2 °C 1009.7 hPa South 9.7 km/h 22.5 km/h 82% 0.25 mm
14:44 15.2 °C 12.3 °C 1009.7 hPa SSW 8 km/h 19.3 km/h 83% 0.25 mm
14:49 15.1 °C 12.4 °C 1009.7 hPa SSW 8 km/h 19.3 km/h 84% 0.25 mm
14:55 15.2 °C 12.5 °C 1009.7 hPa SSW 11.3 km/h 17.7 km/h 84% 0.25 mm
15:04 15.3 °C 12.7 °C 1009.4 hPa South 8 km/h 22.5 km/h 84% 0.25 mm
15:14 15.6 °C 12.7 °C 1009.7 hPa SSW 11.3 km/h 20.9 km/h 83% 0.25 mm
15:19 15.6 °C 12.7 °C 1009.7 hPa SSE 4.8 km/h 20.9 km/h 83% 0.25 mm
15:24 15.7 °C 12.8 °C 1009.7 hPa South 6.4 km/h 25.7 km/h 83% 0.25 mm
15:29 15.8 °C 12.9 °C 1009.7 hPa SSW 4.8 km/h 16.1 km/h 83% 0.25 mm
15:34 15.7 °C 12.7 °C 1009.4 hPa South 6.4 km/h 12.9 km/h 82% 0 mm
15:39 15.8 °C 12.7 °C 1009.4 hPa South 6.4 km/h 19.3 km/h 82% 0 mm
15:44 15.8 °C 12.8 °C 1009.4 hPa South 8 km/h 20.9 km/h 82% 0 mm
15:49 15.9 °C 12.8 °C 1009.4 hPa South 8 km/h 20.9 km/h 82% 0 mm
15:54 15.9 °C 12.8 °C 1009.4 hPa South 3.2 km/h 17.7 km/h 82% 0 mm
15:59 15.8 °C 12.9 °C 1009 hPa South 3.2 km/h 17.7 km/h 83% 0 mm
16:05 15.8 °C 12.9 °C 1009 hPa South 9.7 km/h 14.5 km/h 83% 0 mm
16:09 15.8 °C 12.9 °C 1009 hPa South 6.4 km/h 14.5 km/h 83% 0.25 mm
16:14 15.7 °C 13 °C 1009 hPa South 8 km/h 17.7 km/h 84% 0.25 mm
16:19 15.8 °C 13.1 °C 1009 hPa SSE 11.3 km/h 24.1 km/h 84% 0.25 mm
16:24 15.8 °C 13.1 °C 1009.4 hPa SSW 9.7 km/h 16.1 km/h 84% 0.51 mm
16:29 15.7 °C 13 °C 1009.4 hPa South 4.8 km/h 16.1 km/h 84% 0.76 mm
16:34 15.6 °C 13.1 °C 1009 hPa SSW 3.2 km/h 19.3 km/h 85% 1.02 mm
16:39 15.5 °C 13 °C 1009.4 hPa SSE 9.7 km/h 16.1 km/h 85% 1.52 mm
16:44 15.4 °C 13.1 °C 1009.4 hPa South 6.4 km/h 16.1 km/h 86% 1.52 mm
16:49 15.3 °C 13.2 °C 1009.4 hPa South 6.4 km/h 16.1 km/h 87% 1.78 mm
16:54 15.2 °C 13.1 °C 1009.4 hPa South 6.4 km/h 16.1 km/h 87% 1.78 mm
16:59 15.2 °C 13.2 °C 1009 hPa South 4.8 km/h 14.5 km/h 88% 1.78 mm
17:04 15.1 °C 13.1 °C 1009 hPa South 4.8 km/h 17.7 km/h 88% 1.78 mm
17:10 15.1 °C 13.1 °C 1008.7 hPa SSE 4.8 km/h 16.1 km/h 88% 1.78 mm
17:14 15.1 °C 13.1 °C 1008.7 hPa South 4.8 km/h 16.1 km/h 88% 1.78 mm
17:19 15.1 °C 13.3 °C 1008.4 hPa South 9.7 km/h 16.1 km/h 89% 2.03 mm
17:24 15.1 °C 13.3 °C 1008.4 hPa South 4.8 km/h 9.7 km/h 89% 2.03 mm
17:29 15.1 °C 13.3 °C 1008.7 hPa SSW 1.6 km/h 6.4 km/h 89% 2.03 mm
17:34 15.1 °C 13.3 °C 1009 hPa SSE 4.8 km/h 8 km/h 89% 3.3 mm
17:39 15.1 °C 13.3 °C 1008.7 hPa SE 3.2 km/h 9.7 km/h 89% 3.05 mm
17:44 15.1 °C 13.3 °C 1008.7 hPa South 1.6 km/h 11.3 km/h 89% 3.3 mm
17:49 15.1 °C 13.3 °C 1008.7 hPa South 4.8 km/h 12.9 km/h 89% 3.56 mm
17:54 15.1 °C 13.4 °C 1009 hPa South 6.4 km/h 14.5 km/h 90% 4.32 mm
17:59 15.1 °C 13.4 °C 1009.4 hPa South 1.6 km/h 16.1 km/h 90% 6.86 mm
18:04 15 °C 13.4 °C 1009 hPa SSW 6.4 km/h 14.5 km/h 90% 7.62 mm
18:09 15 °C 13.4 °C 1008.7 hPa South 1.6 km/h 9.7 km/h 90% 7.87 mm
18:14 14.9 °C 13.3 °C 1009 hPa SSW 9.7 km/h 9.7 km/h 90% 8.38 mm
18:19 14.9 °C 13.3 °C 1009 hPa South 4.8 km/h 12.9 km/h 90% 8.64 mm
18:24 15 °C 13.4 °C 1008.7 hPa South 6.4 km/h 12.9 km/h 90% 8.89 mm
18:29 15 °C 13.4 °C 1008.4 hPa South 11.3 km/h 17.7 km/h 90% 9.14 mm
18:34 15 °C 13.6 °C 1008.7 hPa South 4.8 km/h 20.9 km/h 91% 8.38 mm
18:39 15 °C 13.6 °C 1009 hPa SW 11.3 km/h 16.1 km/h 91% 8.64 mm
18:44 15 °C 13.6 °C 1009 hPa South 4.8 km/h 17.7 km/h 91% 9.4 mm
18:49 15.1 °C 13.6 °C 1008 hPa SSE 8 km/h 16.1 km/h 91% 9.91 mm
18:54 15.1 °C 13.7 °C 1008 hPa South 8 km/h 16.1 km/h 91% 9.91 mm
18:59 15.2 °C 13.7 °C 1007.7 hPa South 8 km/h 19.3 km/h 91% 7.87 mm
19:04 15.3 °C 13.8 °C 1007.7 hPa South 9.7 km/h 19.3 km/h 91% 7.62 mm
19:09 15.3 °C 13.8 °C 1007.3 hPa SSE 9.7 km/h 19.3 km/h 91% 7.62 mm
19:14 15.3 °C 13.8 °C 1007.3 hPa SSE 11.3 km/h 29 km/h 91% 7.62 mm
19:19 15.2 °C 13.8 °C 1007.3 hPa South 4.8 km/h 24.1 km/h 91% 7.62 mm
19:24 15.2 °C 13.9 °C 1007.7 hPa SSE 12.9 km/h 24.1 km/h 92% 7.37 mm
19:29 15.2 °C 13.9 °C 1007.7 hPa SSE 4.8 km/h 25.7 km/h 92% 7.37 mm
19:34 15.2 °C 13.9 °C 1007.3 hPa SSE 11.3 km/h 25.7 km/h 92% 7.11 mm
19:39 15.3 °C 14 °C 1007.3 hPa SE 9.7 km/h 20.9 km/h 92% 6.86 mm
19:44 15.3 °C 14 °C 1007.3 hPa SSW 8 km/h 20.9 km/h 92% 6.6 mm
19:49 15.2 °C 13.9 °C 1007.7 hPa SSW 6.4 km/h 16.1 km/h 92% 6.1 mm
19:54 15.3 °C 14 °C 1007.3 hPa SSE 6.4 km/h 12.9 km/h 92% 5.84 mm
20:04 15.3 °C 14.1 °C 1008 hPa SSW 8 km/h 19.3 km/h 92% 6.1 mm
20:09 15.3 °C 14.1 °C 1007.7 hPa SSW 6.4 km/h 14.5 km/h 92% 5.84 mm
20:14 15.3 °C 14.1 °C 1007.3 hPa South 6.4 km/h 14.5 km/h 92% 5.84 mm
20:19 15.3 °C 14 °C 1007.7 hPa South 4.8 km/h 19.3 km/h 92% 5.84 mm
20:24 15.3 °C 14 °C 1007.3 hPa SSE 3.2 km/h 19.3 km/h 92% 6.35 mm
20:29 15.3 °C 14 °C 1007.3 hPa South 8 km/h 19.3 km/h 92% 6.35 mm
20:34 15.3 °C 14 °C 1007 hPa SSE 12.9 km/h 17.7 km/h 92% 6.35 mm
20:39 15.3 °C 14 °C 1006.7 hPa SSE 11.3 km/h 22.5 km/h 92% 6.6 mm
20:44 15.3 °C 14 °C 1006.3 hPa South 11.3 km/h 29 km/h 92% 6.6 mm
20:49 15.2 °C 13.9 °C 1006.3 hPa ESE 6.4 km/h 20.9 km/h 92% 6.6 mm
20:54 15.1 °C 13.8 °C 1006.3 hPa South 12.9 km/h 20.9 km/h 92% 6.6 mm
20:59 15.1 °C 13.6 °C 1006.7 hPa South 6.4 km/h 17.7 km/h 91% 6.1 mm
21:04 15 °C 13.6 °C 1006.7 hPa South 6.4 km/h 17.7 km/h 91% 5.84 mm
21:09 14.9 °C 13.5 °C 1007 hPa South 4.8 km/h 16.1 km/h 91% 5.59 mm
21:14 14.9 °C 13.4 °C 1007 hPa South 4.8 km/h 17.7 km/h 91% 5.08 mm
21:19 14.8 °C 13.4 °C 1007.3 hPa South 4.8 km/h 17.7 km/h 91% 4.57 mm
21:24 14.8 °C 13.6 °C 1007.7 hPa SSW 4.8 km/h 12.9 km/h 92% 3.81 mm
21:29 14.8 °C 13.6 °C 1007.7 hPa SSW 4.8 km/h 9.7 km/h 92% 3.3 mm
21:34 14.8 °C 13.6 °C 1007.3 hPa South 4.8 km/h 12.9 km/h 92% 2.79 mm
21:39 14.8 °C 13.4 °C 1007.3 hPa SW 6.4 km/h 11.3 km/h 91% 2.29 mm
21:44 14.8 °C 13.4 °C 1007.3 hPa SSW 8 km/h 12.9 km/h 91% 1.52 mm
21:49 14.8 °C 13.4 °C 1007.7 hPa SSW 6.4 km/h 14.5 km/h 91% 1.02 mm
21:54 14.8 °C 13.3 °C 1007.7 hPa South 8 km/h 14.5 km/h 91% 0.51 mm
21:59 14.8 °C 13.3 °C 1007.7 hPa SSW 4.8 km/h 11.3 km/h 91% 0.25 mm
22:04 14.8 °C 13.3 °C 1007.7 hPa SSW 8 km/h 12.9 km/h 91% 0 mm
22:09 14.7 °C 13.3 °C 1007.7 hPa SSW 4.8 km/h 16.1 km/h 91% 0 mm
22:20 14.7 °C 13.2 °C 1007.7 hPa SSW 3.2 km/h 11.3 km/h 91% 0.25 mm
22:24 14.7 °C 13.2 °C 1007.3 hPa SSW 1.6 km/h 8 km/h 91% 0.25 mm
22:25 14.7 °C 13.2 °C 1007.3 hPa South 1.6 km/h 6.4 km/h 91% 0.25 mm
22:29 14.6 °C 13.2 °C 1007.3 hPa SSW 1.6 km/h 11.3 km/h 91% 0.25 mm
22:34 14.7 °C 13.2 °C 1007.3 hPa SSW 1.6 km/h 11.3 km/h 91% 0.25 mm
22:39 14.7 °C 13.2 °C 1007.3 hPa SW 6.4 km/h 12.9 km/h 91% 0.25 mm
22:44 14.7 °C 13.2 °C 1007.3 hPa SW 4.8 km/h 11.3 km/h 91% 0.25 mm
22:49 14.7 °C 13.2 °C 1007.3 hPa WSW 3.2 km/h 8 km/h 91% 0.25 mm
22:54 14.7 °C 13.2 °C 1007.3 hPa SSW 3.2 km/h 6.4 km/h 91% 0.25 mm
22:59 14.7 °C 13.3 °C 1007.3 hPa South 1.6 km/h 11.3 km/h 91% 0.25 mm
23:04 14.8 °C 13.3 °C 1007.3 hPa South 4.8 km/h 9.7 km/h 91% 0.25 mm
23:09 14.8 °C 13.4 °C 1007.3 hPa SSW 6.4 km/h 11.3 km/h 91% 0.25 mm
23:14 14.9 °C 13.5 °C 1007.3 hPa SSW 9.7 km/h 12.9 km/h 91% 0.25 mm
23:19 15.1 °C 13.6 °C 1007.3 hPa SSW 4.8 km/h 12.9 km/h 91% 0 mm
23:24 15.1 °C 13.5 °C 1007.3 hPa SSW 4.8 km/h 14.5 km/h 90% 0.25 mm
23:29 15.2 °C 13.6 °C 1007.3 hPa SSW 4.8 km/h 14.5 km/h 90% 1.02 mm
23:34 15.2 °C 13.6 °C 1007.3 hPa SSW 4.8 km/h 12.9 km/h 90% 1.02 mm
23:39 15.2 °C 13.6 °C 1007.3 hPa SSW 4.8 km/h 11.3 km/h 90% 1.02 mm
23:44 15.1 °C 13.5 °C 1007 hPa SSW 3.2 km/h 12.9 km/h 90% 1.02 mm
23:49 15.2 °C 13.6 °C 1007 hPa SSW 4.8 km/h 14.5 km/h 90% 1.02 mm
23:54 15.1 °C 13.5 °C 1007 hPa SSW 6.4 km/h 14.5 km/h 90% 1.27 mm
23:59 15.2 °C 13.6 °C 1007 hPa SSW 8 km/h 11.3 km/h 90% 1.27 mm
Buffalo, New York, USA
Compliments of Weather Underground - 2.5 mb